createdAt,value
2018-03-22T00:02:26.397Z,19.67
2018-03-22T00:04:54.645Z,19.53
2018-03-22T00:07:23.645Z,18.60
2018-03-22T00:09:51.883Z,18.03
2018-03-22T00:12:20.130Z,18.37
2018-03-22T00:14:48.364Z,18.07
2018-03-22T00:17:16.615Z,17.43
2018-03-22T00:19:44.854Z,18.60
2018-03-22T00:22:25.086Z,18.20
2018-03-22T00:24:53.331Z,17.03
2018-03-22T00:27:22.337Z,17.23
2018-03-22T00:29:50.573Z,17.63
2018-03-22T00:32:18.818Z,17.87
2018-03-22T00:34:47.044Z,17.03
2018-03-22T00:37:16.045Z,16.77
2018-03-22T00:39:44.298Z,17.43
2018-03-22T00:42:12.524Z,17.13
2018-03-22T00:44:40.764Z,17.37
2018-03-22T00:47:10.238Z,17.03
2018-03-22T00:49:38.480Z,16.93
2018-03-22T00:52:06.712Z,17.57
2018-03-22T00:54:35.720Z,16.50
2018-03-22T00:57:03.950Z,17.77
2018-03-22T00:59:32.204Z,17.37
2018-03-22T01:02:00.428Z,17.73
2018-03-22T01:04:28.670Z,18.10
2018-03-22T01:06:56.905Z,18.37
2018-03-22T01:09:25.148Z,16.83
2018-03-22T01:11:53.386Z,18.23
2018-03-22T01:14:21.671Z,17.70
2018-03-22T01:16:49.857Z,17.47
2018-03-22T01:19:18.879Z,17.97
2018-03-22T01:21:47.105Z,18.67
2018-03-22T01:24:15.354Z,18.60
2018-03-22T01:26:43.585Z,17.87
2018-03-22T01:29:11.836Z,18.60
2018-03-22T01:31:40.824Z,18.53
2018-03-22T01:34:09.838Z,18.87
2018-03-22T01:36:38.074Z,19.67
2018-03-22T01:39:06.303Z,19.20
2018-03-22T01:41:34.553Z,19.53
2018-03-22T01:44:03.552Z,16.97
2018-03-22T01:46:31.802Z,18.27
2018-03-22T01:49:00.057Z,18.60
2018-03-22T01:51:28.281Z,18.10
2018-03-22T01:53:56.504Z,18.67
2018-03-22T01:56:24.752Z,20.17
2018-03-22T01:58:52.977Z,18.93
2018-03-22T02:01:21.985Z,18.90
2018-03-22T02:03:50.212Z,18.97
2018-03-22T02:06:18.452Z,20.30
2018-03-22T02:08:46.684Z,21.13
2018-03-22T02:11:14.922Z,21.77
2018-03-22T02:13:43.155Z,22.10
2018-03-22T02:16:11.399Z,24.10
2018-03-22T02:18:39.616Z,23.93
2018-03-22T02:21:07.856Z,23.63
2018-03-22T02:23:36.848Z,24.93
2018-03-22T02:26:05.857Z,24.87
2018-03-22T02:28:34.516Z,24.87
2018-03-22T02:31:02.757Z,24.77
2018-03-22T02:33:30.989Z,24.83
2018-03-22T02:35:59.316Z,25.87
2018-03-22T02:38:27.535Z,26.33
2018-03-22T02:40:55.791Z,26.23
2018-03-22T02:43:24.779Z,27.77
2018-03-22T02:45:53.792Z,28.50
2018-03-22T02:48:22.030Z,29.57
2018-03-22T02:50:50.257Z,30.27
2018-03-22T02:53:18.500Z,31.90
2018-03-22T02:55:47.504Z,32.83
2018-03-22T02:58:15.753Z,32.13
2018-03-22T03:00:43.980Z,32.87
2018-03-22T03:03:12.221Z,34.10
2018-03-22T03:05:41.209Z,33.13
2018-03-22T03:08:10.225Z,34.53
2018-03-22T03:10:38.456Z,34.03
2018-03-22T03:13:06.705Z,33.87
2018-03-22T03:15:34.928Z,32.67
2018-03-22T03:18:03.180Z,34.27
2018-03-22T03:20:32.178Z,34.40
2018-03-22T03:23:01.189Z,35.00
2018-03-22T03:25:29.416Z,35.67
2018-03-22T03:27:57.668Z,34.63
2018-03-22T03:30:25.978Z,33.17
2018-03-22T03:32:54.913Z,34.87
2018-03-22T03:35:23.136Z,33.07
2018-03-22T03:37:51.372Z,32.40
2018-03-22T03:40:19.595Z,32.17
2018-03-22T03:42:48.611Z,31.73
2018-03-22T03:45:16.836Z,32.00
2018-03-22T03:47:45.084Z,32.30
2018-03-22T03:50:13.317Z,30.10
2018-03-22T03:52:42.336Z,30.97
2018-03-22T03:55:11.291Z,27.43
2018-03-22T03:57:39.512Z,28.50
2018-03-22T04:00:07.765Z,29.00
2018-03-22T04:02:36.314Z,29.27
2018-03-22T04:05:04.531Z,27.80
2018-03-22T04:07:32.766Z,28.57
2018-03-22T04:10:01.012Z,27.20
2018-03-22T04:12:29.244Z,28.90
2018-03-22T04:14:57.496Z,30.43
2018-03-22T04:17:26.491Z,31.47
2018-03-22T04:19:55.496Z,30.50
2018-03-22T04:22:23.779Z,32.03
2018-03-22T04:24:52.056Z,31.03
2018-03-22T04:27:20.279Z,33.67
2018-03-22T04:29:48.529Z,34.63
2018-03-22T04:32:16.756Z,36.00
2018-03-22T04:34:45.763Z,37.33
2018-03-22T04:37:14.035Z,37.83
2018-03-22T04:39:42.276Z,39.10
2018-03-22T04:42:10.504Z,39.70
2018-03-22T04:44:38.752Z,37.43
2018-03-22T04:47:06.977Z,41.63
2018-03-22T04:49:35.215Z,42.30
2018-03-22T04:52:03.448Z,44.27
2018-03-22T04:54:32.455Z,40.87
2018-03-22T04:57:00.688Z,42.63
2018-03-22T04:59:28.926Z,43.60
2018-03-22T05:01:57.164Z,43.33
2018-03-22T05:04:26.284Z,43.03
2018-03-22T05:06:54.517Z,43.80
2018-03-22T05:09:22.733Z,44.50
2018-03-22T05:11:50.980Z,46.67
2018-03-22T05:14:19.972Z,45.00
2018-03-22T05:16:49.091Z,46.10
2018-03-22T05:19:17.317Z,44.43
2018-03-22T05:21:45.560Z,46.20
2018-03-22T05:24:13.792Z,45.47
2018-03-22T05:26:42.804Z,45.50
2018-03-22T05:29:11.036Z,47.53
2018-03-22T05:31:39.293Z,46.43
2018-03-22T05:34:07.514Z,48.70
2018-03-22T05:36:35.765Z,47.93
2018-03-22T05:39:04.764Z,49.93
2018-03-22T05:41:33.772Z,52.10
2018-03-22T05:44:01.999Z,54.57
2018-03-22T05:46:30.252Z,54.83
2018-03-22T05:48:58.485Z,57.80
2018-03-22T05:51:27.504Z,56.20
2018-03-22T05:53:55.732Z,53.93
2018-03-22T05:56:23.986Z,54.03
2018-03-22T05:58:52.205Z,55.03
2018-03-22T06:01:20.458Z,54.43
2018-03-22T06:03:49.451Z,54.23
2018-03-22T06:06:18.461Z,56.57
2018-03-22T06:08:46.732Z,55.40
2018-03-22T06:11:14.939Z,56.33
2018-03-22T06:13:43.503Z,56.97
2018-03-22T06:16:11.756Z,55.93
2018-03-22T06:18:40.753Z,53.90
2018-03-22T06:21:09.766Z,53.03
2018-03-22T06:23:37.991Z,57.40
2018-03-22T06:26:06.257Z,53.13
2018-03-22T06:28:34.484Z,53.77
2018-03-22T06:31:02.818Z,53.57
2018-03-22T06:33:31.393Z,54.83
2018-03-22T06:35:59.607Z,50.60
2018-03-22T06:38:27.845Z,50.70
2018-03-22T06:40:56.071Z,44.97
2018-03-22T06:43:24.356Z,43.63
2018-03-22T06:45:52.989Z,44.47
2018-03-22T06:48:22.147Z,46.97
2018-03-22T06:50:50.348Z,40.37
2018-03-22T06:53:19.360Z,40.53
2018-03-22T06:55:47.588Z,39.87
2018-03-22T06:58:15.831Z,38.47
2018-03-22T07:00:44.067Z,40.43
2018-03-22T07:03:13.082Z,39.10
2018-03-22T07:05:41.310Z,39.57
2018-03-22T07:08:09.555Z,41.43
2018-03-22T07:10:37.787Z,39.30
2018-03-22T07:13:06.800Z,38.00
2018-03-22T07:15:35.054Z,38.20
2018-03-22T07:18:04.087Z,37.67
2018-03-22T07:20:32.310Z,37.80
2018-03-22T07:23:01.319Z,36.57
2018-03-22T07:25:29.598Z,37.87
2018-03-22T07:27:57.785Z,39.13
2018-03-22T07:30:26.017Z,36.77
2018-03-22T07:32:55.045Z,37.07
2018-03-22T07:35:23.276Z,36.40
2018-03-22T07:37:51.495Z,37.90
2018-03-22T07:40:19.744Z,36.00
2018-03-22T07:42:53.745Z,36.20
2018-03-22T07:45:22.749Z,36.57
2018-03-22T07:47:50.980Z,38.40
2018-03-22T07:50:19.227Z,37.97
2018-03-22T07:52:47.448Z,34.30
2018-03-22T07:55:16.464Z,32.77
2018-03-22T07:57:44.698Z,31.70
2018-03-22T08:00:12.950Z,31.90
2018-03-22T08:02:41.180Z,31.13
2018-03-22T08:05:10.188Z,28.43
2018-03-22T08:07:38.416Z,29.47
2018-03-22T08:10:06.665Z,30.60
2018-03-22T08:12:34.887Z,28.10
2018-03-22T08:15:03.908Z,29.70
2018-03-22T08:17:32.140Z,27.73
2018-03-22T08:20:01.195Z,29.90
2018-03-22T08:22:29.424Z,27.20
2018-03-22T08:24:57.665Z,29.20
2018-03-22T08:27:25.888Z,30.33
2018-03-22T08:29:54.140Z,29.27
2018-03-22T08:32:23.131Z,28.20
2018-03-22T08:34:52.144Z,28.40
2018-03-22T08:37:20.371Z,28.33
2018-03-22T08:39:48.613Z,28.97
2018-03-22T08:42:16.864Z,27.73
2018-03-22T08:44:45.116Z,27.40
2018-03-22T08:47:14.112Z,27.20
2018-03-22T08:49:42.365Z,27.13
2018-03-22T08:52:10.612Z,28.17
2018-03-22T08:54:38.848Z,29.63
2018-03-22T08:57:07.088Z,31.33
2018-03-22T08:59:36.086Z,25.60
2018-03-22T09:02:05.097Z,25.93
2018-03-22T09:04:33.330Z,24.13
2018-03-22T09:07:01.571Z,24.67
2018-03-22T09:09:29.801Z,24.00
2018-03-22T09:11:58.814Z,24.77
2018-03-22T09:14:27.038Z,25.53
2018-03-22T09:16:56.805Z,24.33
2018-03-22T09:19:25.025Z,25.37
2018-03-22T09:21:54.799Z,26.80
2018-03-22T09:24:23.056Z,26.23
2018-03-22T09:26:57.037Z,26.57
2018-03-22T09:29:26.044Z,27.27
2018-03-22T09:31:54.289Z,28.63
2018-03-22T09:34:22.518Z,27.77
2018-03-22T09:36:50.760Z,25.30
2018-03-22T09:39:19.754Z,25.57
2018-03-22T09:41:48.774Z,25.53
2018-03-22T09:44:16.992Z,24.70
2018-03-22T09:46:45.236Z,26.03
2018-03-22T09:49:13.460Z,25.07
2018-03-22T09:51:42.472Z,23.50
2018-03-22T09:54:10.747Z,25.23
2018-03-22T09:56:38.992Z,23.33
2018-03-22T09:59:07.984Z,24.50
2018-03-22T10:01:36.991Z,25.30
2018-03-22T10:04:05.216Z,24.57
2018-03-22T10:06:33.464Z,23.70
2018-03-22T10:09:01.723Z,23.10
2018-03-22T10:11:29.943Z,24.00
2018-03-22T10:13:58.188Z,23.10
2018-03-22T10:16:26.416Z,23.83
2018-03-22T10:18:55.436Z,24.10
2018-03-22T10:21:23.673Z,24.77
2018-03-22T10:23:51.924Z,23.47
2018-03-22T10:26:20.153Z,22.40
2018-03-22T10:28:48.451Z,24.37
2018-03-22T10:31:16.648Z,24.07
2018-03-22T10:33:44.900Z,24.30
2018-03-22T10:36:13.119Z,24.43
2018-03-22T10:38:42.143Z,22.07
2018-03-22T10:41:10.416Z,22.57
2018-03-22T10:43:38.664Z,21.80
2018-03-22T10:46:07.652Z,24.00
2018-03-22T10:48:36.661Z,22.63
2018-03-22T10:51:04.888Z,21.97
2018-03-22T10:53:33.131Z,21.80
2018-03-22T10:56:01.364Z,21.00
2018-03-22T10:58:30.371Z,21.33
2018-03-22T11:01:04.276Z,21.30
2018-03-22T11:06:35.310Z,20.50
2018-03-22T11:09:03.525Z,20.90
2018-03-22T11:11:31.753Z,20.17
2018-03-22T11:14:00.001Z,18.20
2018-03-22T11:16:28.227Z,19.57
2018-03-22T11:18:56.489Z,18.73
2018-03-22T11:21:25.480Z,17.93
2018-03-22T11:23:54.480Z,17.80
2018-03-22T11:26:23.492Z,18.50
2018-03-22T11:28:51.721Z,18.03
2018-03-22T11:31:19.957Z,17.60
2018-03-22T11:33:48.184Z,18.23
2018-03-22T11:36:17.198Z,17.93
2018-03-22T11:38:45.426Z,17.43
2018-03-22T11:41:13.661Z,16.90
2018-03-22T11:43:41.893Z,17.40
2018-03-22T11:46:10.907Z,18.07
2018-03-22T11:48:39.142Z,18.00
2018-03-22T11:51:07.384Z,17.57
2018-03-22T11:53:35.611Z,17.67
2018-03-22T11:56:04.624Z,18.17
2018-03-22T11:58:32.862Z,17.70
2018-03-22T12:01:01.100Z,17.43
2018-03-22T12:03:29.338Z,18.50
2018-03-22T12:05:58.345Z,18.40
2018-03-22T12:08:26.595Z,19.07
2018-03-22T12:10:54.819Z,18.67
2018-03-22T12:13:23.048Z,17.63
2018-03-22T12:15:51.301Z,18.37
2018-03-22T12:18:20.303Z,18.27
2018-03-22T12:20:49.336Z,18.90
2018-03-22T12:23:18.480Z,18.53
2018-03-22T12:25:47.501Z,17.60
2018-03-22T12:28:15.724Z,17.87
2018-03-22T12:30:44.058Z,17.70
2018-03-22T12:33:12.297Z,19.67
2018-03-22T12:35:41.288Z,20.47
2018-03-22T12:38:09.576Z,20.97
2018-03-22T12:40:38.625Z,20.20
2018-03-22T12:43:06.900Z,20.83
2018-03-22T12:45:35.193Z,20.37
2018-03-22T12:48:03.409Z,21.73
2018-03-22T12:50:31.645Z,21.83
2018-03-22T12:52:59.886Z,23.10
2018-03-22T12:55:28.132Z,23.83
2018-03-22T12:57:56.379Z,25.27
2018-03-22T13:00:25.385Z,26.70
2018-03-22T13:02:53.639Z,25.63
2018-03-22T13:05:21.861Z,28.30
2018-03-22T13:07:50.112Z,29.60
2018-03-22T13:10:18.335Z,29.80
2018-03-22T13:12:46.657Z,30.40
2018-03-22T13:15:14.833Z,30.40
2018-03-22T13:17:43.079Z,28.80
2018-03-22T13:20:12.081Z,30.27
2018-03-22T13:22:41.099Z,30.97
2018-03-22T13:25:09.321Z,30.53
2018-03-22T13:27:37.568Z,32.30
2018-03-22T13:30:05.805Z,30.80
2018-03-22T13:32:34.052Z,31.23
2018-03-22T13:35:03.049Z,30.40
2018-03-22T13:37:32.057Z,31.93
2018-03-22T13:40:00.347Z,30.83
2018-03-22T13:42:28.624Z,30.77
2018-03-22T13:44:56.855Z,31.30
2018-03-22T13:47:25.108Z,30.20
2018-03-22T13:49:53.336Z,32.30
2018-03-22T13:52:21.567Z,29.83
2018-03-22T13:54:49.804Z,32.03
2018-03-22T13:57:18.031Z,28.67
2018-03-22T13:59:47.040Z,29.93
2018-03-22T14:02:15.286Z,29.37
2018-03-22T14:04:43.525Z,26.40
2018-03-22T14:07:11.758Z,27.57
2018-03-22T14:09:40.765Z,25.37
2018-03-22T14:12:08.990Z,25.20
2018-03-22T14:14:37.241Z,23.80
2018-03-22T14:17:05.473Z,30.60
2018-03-22T14:19:33.724Z,18.50
2018-03-22T14:22:01.948Z,22.77
2018-03-22T14:24:30.199Z,18.43
2018-03-22T14:26:58.433Z,15.73
2018-03-22T14:29:26.692Z,12.27
2018-03-22T14:31:55.736Z,12.73
2018-03-22T14:34:23.985Z,11.17
2018-03-22T14:36:52.208Z,11.33
2018-03-22T14:39:20.460Z,11.70
2018-03-22T14:41:48.684Z,9.43
2018-03-22T14:44:16.924Z,8.10
2018-03-22T14:46:45.153Z,10.17
2018-03-22T14:49:13.500Z,10.97
2018-03-22T14:51:41.728Z,10.47
2018-03-22T14:54:09.989Z,8.13
2018-03-22T14:56:38.973Z,4.73
2018-03-22T14:59:07.958Z,2.90
2018-03-22T15:01:36.185Z,2.70
2018-03-22T15:04:04.408Z,2.90
2018-03-22T15:06:32.645Z,2.90
2018-03-22T15:09:00.862Z,2.90
2018-03-22T15:11:29.859Z,3.20
2018-03-22T15:13:58.844Z,3.50
2018-03-22T15:16:27.848Z,3.40
2018-03-22T15:18:56.832Z,2.97
2018-03-22T15:21:25.851Z,3.23
2018-03-22T15:23:54.068Z,5.60
2018-03-22T15:26:22.337Z,6.77
2018-03-22T15:28:50.518Z,6.00
2018-03-22T15:31:18.760Z,4.00
2018-03-22T15:33:46.976Z,8.17
2018-03-22T15:36:15.213Z,5.80
2018-03-22T15:38:43.431Z,3.90
2018-03-22T15:41:11.655Z,4.77
2018-03-22T15:43:39.878Z,3.80
2018-03-22T15:46:08.876Z,3.27
2018-03-22T15:48:37.860Z,3.10
2018-03-22T15:51:06.092Z,3.40
2018-03-22T15:53:34.314Z,3.77
2018-03-22T15:56:03.308Z,3.50
2018-03-22T15:58:32.312Z,3.73
2018-03-22T16:01:01.315Z,3.73
2018-03-22T16:03:29.540Z,3.53
2018-03-22T16:05:57.780Z,3.27
2018-03-22T16:08:25.995Z,3.43
2018-03-22T16:10:54.336Z,3.83
2018-03-22T16:19:31.348Z,3.73
2018-03-22T16:25:38.073Z,4.10
2018-03-22T16:28:10.242Z,3.97
2018-03-22T16:33:43.504Z,4.70
2018-03-22T16:36:40.175Z,4.27
2018-03-22T16:42:48.428Z,4.30
2018-03-22T16:51:08.880Z,4.83
2018-03-22T16:53:37.122Z,6.07
2018-03-22T16:56:05.352Z,8.97
2018-03-22T16:58:33.593Z,8.13
2018-03-22T17:01:01.820Z,6.93
2018-03-22T17:03:30.160Z,5.13
2018-03-22T17:06:02.254Z,7.30
2018-03-22T17:08:30.714Z,4.67
2018-03-22T17:10:59.433Z,4.80
2018-03-22T17:13:27.760Z,4.73
2018-03-22T17:15:55.975Z,5.37
2018-03-22T17:18:24.261Z,5.30
2018-03-22T17:20:52.531Z,4.70
2018-03-22T17:23:20.756Z,5.83
2018-03-22T17:25:48.982Z,5.43
2018-03-22T17:28:18.724Z,5.70
2018-03-22T17:30:47.716Z,5.00
2018-03-22T17:33:16.719Z,5.40
2018-03-22T17:35:44.953Z,5.20
2018-03-22T17:38:13.193Z,5.57
2018-03-22T17:40:41.417Z,4.77
2018-03-22T17:43:10.418Z,5.47
2018-03-22T17:45:39.409Z,5.67
2018-03-22T17:48:08.424Z,5.83
2018-03-22T17:50:36.648Z,5.57
2018-03-22T17:53:04.956Z,6.30
2018-03-22T17:55:33.203Z,5.80
2018-03-22T17:58:01.488Z,6.07
2018-03-22T18:00:30.529Z,6.13
2018-03-22T18:02:58.870Z,6.20
2018-03-22T18:05:28.016Z,6.60
2018-03-22T18:07:56.234Z,6.40
2018-03-22T18:10:25.235Z,6.60
2018-03-22T18:12:53.639Z,6.70
2018-03-22T18:15:21.869Z,6.67
2018-03-22T18:17:50.847Z,6.60
2018-03-22T18:20:19.146Z,6.63
2018-03-22T18:22:47.436Z,7.23
2018-03-22T18:25:16.512Z,7.30
2018-03-22T18:27:44.768Z,7.40
2018-03-22T18:30:13.772Z,8.30
2018-03-22T18:32:42.766Z,6.80
2018-03-22T18:35:11.876Z,8.00
2018-03-22T18:37:40.092Z,7.60
2018-03-22T18:40:08.328Z,8.03
2018-03-22T18:42:36.550Z,7.83
2018-03-22T18:45:04.825Z,8.17
2018-03-22T18:47:33.041Z,8.50
2018-03-22T18:50:01.284Z,8.80
2018-03-22T18:52:29.504Z,8.83
2018-03-22T18:54:57.755Z,9.87
2018-03-22T18:57:26.004Z,10.67
2018-03-22T18:59:54.253Z,10.07
2018-03-22T19:02:22.501Z,10.70
2018-03-22T19:04:50.730Z,10.27
2018-03-22T19:07:20.092Z,11.53
2018-03-22T19:09:48.276Z,11.30
2018-03-22T19:12:16.525Z,12.20
2018-03-22T19:14:44.752Z,12.90
2018-03-22T19:17:13.756Z,11.50
2018-03-22T19:19:42.752Z,12.50
2018-03-22T19:22:10.994Z,12.60
2018-03-22T19:24:39.226Z,13.03
2018-03-22T19:27:07.469Z,12.83
2018-03-22T19:29:36.465Z,12.67
2018-03-22T19:32:05.564Z,13.27
2018-03-22T19:34:33.795Z,12.60
2018-03-22T19:37:02.048Z,13.43
2018-03-22T19:39:30.287Z,12.90
2018-03-22T19:41:58.523Z,12.80
2018-03-22T19:44:26.793Z,14.00
2018-03-22T19:46:55.000Z,13.07
2018-03-22T19:49:23.472Z,13.03
2018-03-22T19:51:52.479Z,13.67
2018-03-22T19:54:20.710Z,12.80
2018-03-22T19:56:49.203Z,13.40
2018-03-22T19:59:18.200Z,13.17
2018-03-22T20:01:47.211Z,11.93
2018-03-22T20:04:15.436Z,12.23
2018-03-22T20:06:43.687Z,11.23
2018-03-22T20:09:11.916Z,10.87
2018-03-22T20:11:40.916Z,10.70
2018-03-22T20:14:09.924Z,9.10
2018-03-22T20:16:38.241Z,10.57
2018-03-22T20:19:06.444Z,10.37
2018-03-22T20:21:35.443Z,10.50
2018-03-22T20:24:04.465Z,10.67
2018-03-22T20:26:32.697Z,10.47
2018-03-22T20:29:00.988Z,9.80
2018-03-22T20:31:30.684Z,10.77
2018-03-22T20:33:59.697Z,9.90
2018-03-22T20:36:27.921Z,10.00
2018-03-22T20:38:56.779Z,10.47
2018-03-22T20:41:25.000Z,10.20
2018-03-22T20:43:53.249Z,11.27
2018-03-22T20:46:21.472Z,10.20
2018-03-22T20:48:49.713Z,11.63
2018-03-22T20:51:17.944Z,10.13
2018-03-22T20:53:46.201Z,10.27
2018-03-22T20:56:14.422Z,8.40
2018-03-22T20:58:42.660Z,5.73
2018-03-22T21:01:10.885Z,9.00
2018-03-22T21:03:39.115Z,9.20
2018-03-22T21:06:07.337Z,6.20
2018-03-22T21:08:35.576Z,6.40
2018-03-22T21:11:03.799Z,5.97
2018-03-22T21:13:32.797Z,6.10
2018-03-22T21:16:01.785Z,6.50
2018-03-22T21:18:30.787Z,7.97
2018-03-22T21:20:59.009Z,8.40
2018-03-22T21:23:27.256Z,10.00
2018-03-22T21:25:55.485Z,9.90
2018-03-22T21:28:23.703Z,9.70
2018-03-22T21:30:51.945Z,8.83
2018-03-22T21:33:20.945Z,8.50
2018-03-22T21:35:49.940Z,7.97
2018-03-22T21:38:18.183Z,7.07
2018-03-22T21:40:46.416Z,6.70
2018-03-22T21:43:14.628Z,6.40
2018-03-22T21:45:42.871Z,5.70
2018-03-22T21:48:11.097Z,6.70
2018-03-22T21:50:48.935Z,4.23
2018-03-22T21:53:17.160Z,4.00
2018-03-22T21:55:46.162Z,3.30
2018-03-22T21:58:15.144Z,2.60
2018-03-22T22:00:44.148Z,2.63
2018-03-22T22:03:12.363Z,2.67
2018-03-22T22:05:40.603Z,3.03
2018-03-22T22:08:08.816Z,3.47
2018-03-22T22:10:37.057Z,3.13
2018-03-22T22:13:05.285Z,3.47
2018-03-22T22:15:33.521Z,3.37
2018-03-22T22:18:01.736Z,3.93
2018-03-22T22:20:29.970Z,3.23
2018-03-22T22:22:58.188Z,4.10
2018-03-22T22:25:27.192Z,3.50
2018-03-22T22:27:56.179Z,3.40
2018-03-22T22:30:25.192Z,4.30
2018-03-22T22:32:53.408Z,4.90
2018-03-22T22:35:21.620Z,5.10
2018-03-22T22:37:50.620Z,4.10
2018-03-22T22:40:18.837Z,5.20
2018-03-22T22:42:47.079Z,5.53
2018-03-22T22:45:15.292Z,5.20
2018-03-22T22:47:43.561Z,4.43
2018-03-22T22:50:11.753Z,5.00
2018-03-22T22:52:40.037Z,5.80
2018-03-22T22:55:08.211Z,5.47
2018-03-22T22:57:36.440Z,4.90
2018-03-22T23:00:04.652Z,5.03
2018-03-22T23:02:32.888Z,4.33
2018-03-22T23:05:01.099Z,3.63
2018-03-22T23:07:29.343Z,3.87
2018-03-22T23:09:57.557Z,3.47
2018-03-22T23:12:26.555Z,4.13
2018-03-22T23:14:55.544Z,3.43
2018-03-22T23:17:24.549Z,3.60
2018-03-22T23:19:52.772Z,3.47
2018-03-22T23:22:21.010Z,3.20
2018-03-22T23:24:49.223Z,3.33
2018-03-22T23:27:17.464Z,3.33
2018-03-22T23:29:45.688Z,3.00
2018-03-22T23:32:13.924Z,3.60
2018-03-22T23:34:42.139Z,3.30
2018-03-22T23:37:10.376Z,3.40
2018-03-22T23:39:38.592Z,2.93
2018-03-22T23:42:07.617Z,3.03
2018-03-22T23:44:35.825Z,3.07
2018-03-22T23:47:04.050Z,2.80
2018-03-22T23:49:32.292Z,3.10
2018-03-22T23:52:00.509Z,3.70
2018-03-22T23:54:28.751Z,3.37
2018-03-22T23:56:56.969Z,3.50
2018-03-22T23:59:25.203Z,3.47
